createdAt,value
2022-11-29T00:01:25.106Z,32.28
2022-11-29T00:03:52.491Z,32.58
2022-11-29T00:06:22.605Z,32.92
2022-11-29T00:08:52.186Z,33.67
2022-11-29T00:11:44.216Z,30.75
2022-11-29T00:14:14.327Z,31.83
2022-11-29T00:16:43.145Z,31.85
2022-11-29T00:19:11.492Z,28.98
2022-11-29T00:21:37.941Z,32.63
2022-11-29T00:24:04.968Z,32.50
2022-11-29T00:26:31.433Z,29.50
2022-11-29T00:28:57.802Z,29.85
2022-11-29T00:31:27.661Z,29.50
2022-11-29T00:33:54.086Z,34.83
2022-11-29T00:36:20.549Z,31.23
2022-11-29T00:38:46.968Z,30.85
2022-11-29T00:41:13.970Z,32.13
2022-11-29T00:43:40.373Z,32.70
2022-11-29T00:46:07.325Z,32.28
2022-11-29T00:48:37.151Z,32.50
2022-11-29T00:51:05.035Z,30.17
2022-11-29T00:53:32.048Z,32.75
2022-11-29T00:55:58.543Z,32.47
2022-11-29T00:58:24.951Z,32.28
2022-11-29T01:00:53.187Z,31.73
2022-11-29T01:03:19.828Z,32.00
2022-11-29T01:05:46.830Z,29.35
2022-11-29T01:08:14.087Z,32.70
2022-11-29T01:10:41.170Z,28.90
2022-11-29T01:13:08.710Z,27.73
2022-11-29T01:15:35.907Z,30.38
2022-11-29T01:18:02.636Z,31.40
2022-11-29T01:20:29.119Z,31.73
2022-11-29T01:22:55.796Z,27.70
2022-11-29T01:25:22.224Z,30.80
2022-11-29T01:27:48.600Z,28.63
2022-11-29T01:30:15.212Z,30.33
2022-11-29T01:32:41.692Z,31.77
2022-11-29T01:35:08.593Z,29.88
2022-11-29T01:37:35.123Z,30.00
2022-11-29T01:40:01.875Z,28.55
2022-11-29T01:42:28.287Z,28.23
2022-11-29T01:45:23.178Z,31.15
2022-11-29T01:47:55.014Z,29.10
2022-11-29T01:50:21.923Z,28.75
2022-11-29T01:52:48.807Z,28.10
2022-11-29T01:55:15.599Z,27.20
2022-11-29T01:57:43.266Z,27.73
2022-11-29T02:00:16.048Z,27.67
2022-11-29T02:03:10.139Z,27.60
2022-11-29T02:05:40.923Z,27.88
2022-11-29T02:08:09.713Z,25.98
2022-11-29T02:10:57.545Z,25.83
2022-11-29T02:13:39.148Z,24.33
2022-11-29T02:16:15.952Z,26.50
2022-11-29T02:19:04.071Z,23.08
2022-11-29T02:21:44.074Z,25.23
2022-11-29T02:24:39.643Z,23.30
2022-11-29T02:27:37.251Z,25.25
2022-11-29T02:30:18.529Z,23.85
2022-11-29T02:33:05.920Z,21.38
2022-11-29T02:36:00.323Z,22.77
2022-11-29T02:39:11.498Z,22.80
2022-11-29T02:42:22.134Z,23.25
2022-11-29T02:45:06.346Z,22.15
2022-11-29T02:47:42.466Z,22.88
2022-11-29T02:50:44.920Z,23.50
2022-11-29T02:53:25.914Z,19.90
2022-11-29T02:56:04.252Z,21.38
2022-11-29T02:59:06.079Z,24.55
2022-11-29T03:01:35.170Z,24.08
2022-11-29T03:04:23.509Z,22.33
2022-11-29T03:07:19.063Z,23.90
2022-11-29T03:10:11.619Z,23.88
2022-11-29T03:15:09.361Z,22.50
2022-11-29T03:17:57.645Z,25.10
2022-11-29T03:20:45.500Z,21.48
2022-11-29T03:23:21.830Z,22.02
2022-11-29T03:25:57.260Z,20.25
2022-11-29T03:28:37.357Z,22.15
2022-11-29T03:31:14.102Z,21.77
2022-11-29T03:33:48.358Z,19.65
2022-11-29T03:36:27.701Z,24.48
2022-11-29T03:39:00.491Z,23.77
2022-11-29T03:41:41.275Z,22.20
2022-11-29T03:44:24.054Z,21.70
2022-11-29T03:46:58.366Z,20.38
2022-11-29T03:49:33.044Z,21.70
2022-11-29T03:52:20.628Z,18.42
2022-11-29T03:55:05.187Z,20.27
2022-11-29T03:57:57.076Z,20.17
2022-11-29T04:00:23.742Z,18.05
2022-11-29T04:03:07.764Z,18.42
2022-11-29T04:05:42.258Z,18.48
2022-11-29T04:08:35.035Z,19.42
2022-11-29T04:11:58.677Z,21.05
2022-11-29T04:14:33.778Z,18.08
2022-11-29T04:17:15.366Z,20.38
2022-11-29T04:20:04.873Z,21.20
2022-11-29T04:22:33.913Z,18.02
2022-11-29T04:25:44.304Z,18.92
2022-11-29T04:28:25.555Z,21.52
2022-11-29T04:31:07.144Z,21.20
2022-11-29T04:34:18.550Z,18.40
2022-11-29T04:37:07.784Z,17.33
2022-11-29T04:39:49.064Z,18.38
2022-11-29T04:42:46.073Z,18.92
2022-11-29T04:45:34.763Z,18.63
2022-11-29T04:48:06.899Z,19.23
2022-11-29T04:53:32.521Z,19.50
2022-11-29T04:56:15.046Z,17.60
2022-11-29T04:59:02.211Z,17.70
2022-11-29T05:02:11.256Z,17.00
2022-11-29T05:05:03.220Z,18.63
2022-11-29T05:07:50.053Z,17.05
2022-11-29T05:10:41.720Z,18.67
2022-11-29T05:13:32.659Z,17.35
2022-11-29T05:16:22.880Z,18.33
2022-11-29T05:19:17.220Z,19.10
2022-11-29T05:22:20.170Z,17.98
2022-11-29T05:24:56.033Z,18.25
2022-11-29T05:27:45.171Z,16.80
2022-11-29T05:30:13.378Z,20.48
2022-11-29T05:33:21.836Z,17.48
2022-11-29T05:36:18.988Z,19.05
2022-11-29T05:39:10.267Z,18.55
2022-11-29T05:41:55.429Z,18.58
2022-11-29T05:44:31.593Z,15.60
2022-11-29T05:47:03.045Z,16.15
2022-11-29T05:49:39.549Z,15.35
2022-11-29T05:52:20.212Z,15.15
2022-11-29T05:55:03.408Z,15.00
2022-11-29T05:57:56.993Z,16.08
2022-11-29T06:00:24.582Z,14.75
2022-11-29T06:03:06.154Z,15.40
2022-11-29T06:05:42.226Z,14.30
2022-11-29T06:08:19.400Z,15.35
2022-11-29T06:11:13.863Z,16.35
2022-11-29T06:14:00.647Z,15.43
2022-11-29T06:16:36.453Z,14.10
2022-11-29T06:19:23.960Z,15.13
2022-11-29T06:22:00.107Z,14.68
2022-11-29T06:25:11.579Z,16.75
2022-11-29T06:27:59.066Z,14.18
2022-11-29T06:30:32.078Z,15.73
2022-11-29T06:33:21.453Z,15.55
2022-11-29T06:36:23.085Z,14.30
2022-11-29T06:38:49.767Z,13.75
2022-11-29T06:41:22.410Z,13.15
2022-11-29T06:43:49.637Z,15.00
2022-11-29T06:46:25.321Z,14.30
2022-11-29T06:49:02.086Z,15.45
2022-11-29T06:51:35.544Z,14.80
2022-11-29T06:54:28.855Z,13.13
2022-11-29T06:57:05.987Z,12.63
2022-11-29T06:59:51.213Z,10.98
2022-11-29T07:02:43.283Z,12.23
2022-11-29T07:05:29.117Z,13.52
2022-11-29T07:08:00.688Z,11.98
2022-11-29T07:10:31.220Z,11.55
2022-11-29T07:12:57.849Z,12.43
2022-11-29T07:15:24.914Z,12.45
2022-11-29T07:18:14.136Z,13.27
2022-11-29T07:21:01.817Z,12.82
2022-11-29T07:23:33.392Z,11.30
2022-11-29T07:26:08.600Z,12.25
2022-11-29T07:28:37.899Z,11.68
2022-11-29T07:31:29.379Z,9.68
2022-11-29T07:34:27.188Z,10.85
2022-11-29T07:37:10.698Z,13.75
2022-11-29T07:39:51.768Z,11.07
2022-11-29T07:42:27.117Z,12.82
2022-11-29T07:45:14.640Z,12.25
2022-11-29T07:47:40.966Z,11.63
2022-11-29T07:50:08.012Z,11.95
2022-11-29T07:52:34.537Z,13.98
2022-11-29T07:55:03.158Z,14.15
2022-11-29T07:57:29.518Z,11.32
2022-11-29T07:59:56.006Z,15.50
2022-11-29T08:02:29.849Z,13.15
2022-11-29T08:04:56.644Z,11.52
2022-11-29T08:07:23.473Z,11.13
2022-11-29T08:09:49.911Z,13.32
2022-11-29T08:12:17.966Z,12.32
2022-11-29T08:14:44.664Z,11.48
2022-11-29T08:17:11.280Z,12.55
2022-11-29T08:19:40.638Z,12.23
2022-11-29T08:22:07.021Z,12.13
2022-11-29T08:24:33.443Z,12.95
2022-11-29T08:26:59.792Z,13.45
2022-11-29T08:29:26.339Z,14.35
2022-11-29T08:31:53.807Z,13.23
2022-11-29T08:34:21.549Z,14.18
2022-11-29T08:36:48.987Z,12.75
2022-11-29T08:39:15.603Z,11.77
2022-11-29T08:41:44.917Z,9.00
2022-11-29T08:44:11.340Z,12.52
2022-11-29T08:46:56.651Z,11.48
2022-11-29T08:49:23.078Z,11.27
2022-11-29T08:51:52.856Z,11.43
2022-11-29T08:54:19.254Z,11.30
2022-11-29T08:59:32.196Z,11.20
2022-11-29T09:01:58.769Z,9.88
2022-11-29T09:04:25.184Z,10.48
2022-11-29T09:06:51.547Z,11.60
2022-11-29T09:09:18.112Z,9.73
2022-11-29T09:11:48.233Z,8.90
2022-11-29T09:14:18.116Z,9.63
2022-11-29T09:16:44.681Z,10.50
2022-11-29T09:19:14.211Z,11.65
2022-11-29T09:21:40.587Z,10.07
2022-11-29T09:24:07.112Z,11.43
2022-11-29T09:26:36.032Z,9.98
2022-11-29T09:29:05.037Z,8.73
2022-11-29T09:31:32.748Z,10.80
2022-11-29T09:33:59.740Z,10.00
2022-11-29T09:36:29.225Z,8.98
2022-11-29T09:38:57.043Z,8.85
2022-11-29T09:41:48.391Z,9.80
2022-11-29T09:44:31.572Z,9.18
2022-11-29T09:47:27.275Z,10.82
2022-11-29T09:50:16.408Z,10.30
2022-11-29T09:52:51.548Z,9.75
2022-11-29T09:55:39.147Z,10.43
2022-11-29T09:58:13.162Z,11.45
2022-11-29T10:00:48.398Z,10.02
2022-11-29T10:03:29.347Z,8.45
2022-11-29T10:06:02.207Z,9.65
2022-11-29T10:08:37.169Z,8.18
2022-11-29T10:11:19.537Z,8.80
2022-11-29T10:16:34.339Z,7.68
2022-11-29T10:19:07.813Z,9.95
2022-11-29T10:21:36.846Z,7.28
2022-11-29T10:24:14.663Z,8.35
2022-11-29T10:26:41.417Z,9.10
2022-11-29T10:29:13.479Z,9.40
2022-11-29T10:31:43.975Z,8.85
2022-11-29T10:34:18.977Z,11.02
2022-11-29T10:36:52.188Z,8.70
2022-11-29T10:39:37.175Z,8.50
2022-11-29T10:42:32.632Z,10.70
2022-11-29T10:45:00.045Z,10.07
2022-11-29T10:47:26.549Z,8.07
2022-11-29T10:49:53.098Z,10.48
2022-11-29T10:52:21.954Z,9.27
2022-11-29T10:54:50.887Z,10.48
2022-11-29T10:57:21.907Z,9.00
2022-11-29T11:00:02.120Z,10.25
2022-11-29T11:02:28.860Z,9.07
2022-11-29T11:04:55.416Z,9.95
2022-11-29T11:07:42.160Z,10.57
2022-11-29T11:10:26.566Z,9.30
2022-11-29T11:13:18.595Z,9.80
2022-11-29T11:15:45.328Z,8.32
2022-11-29T11:18:21.234Z,10.10
2022-11-29T11:20:57.031Z,10.75
2022-11-29T11:23:25.742Z,10.38
2022-11-29T11:26:02.219Z,11.25
2022-11-29T11:28:34.153Z,10.43
2022-11-29T11:31:07.854Z,10.55
2022-11-29T11:33:41.040Z,11.38
2022-11-29T11:36:19.440Z,11.05
2022-11-29T11:38:59.441Z,10.30
2022-11-29T11:41:55.696Z,10.38
2022-11-29T11:44:52.291Z,11.43
2022-11-29T11:47:24.147Z,10.45
2022-11-29T11:50:12.761Z,9.95
2022-11-29T11:52:41.333Z,9.95
2022-11-29T11:55:19.097Z,10.45
2022-11-29T11:57:45.464Z,9.68
2022-11-29T12:01:03.422Z,10.30
2022-11-29T12:03:41.769Z,10.48
2022-11-29T12:06:28.263Z,9.95
2022-11-29T12:09:09.798Z,10.60
2022-11-29T12:12:00.183Z,9.60
2022-11-29T12:14:32.118Z,11.40
2022-11-29T12:17:08.112Z,9.15
2022-11-29T12:19:43.888Z,9.15
2022-11-29T12:22:16.523Z,11.70
2022-11-29T12:24:54.158Z,8.85
2022-11-29T12:27:20.643Z,9.80
2022-11-29T12:29:47.205Z,9.32
2022-11-29T12:32:27.906Z,10.93
2022-11-29T12:35:35.105Z,9.38
2022-11-29T12:38:13.312Z,9.70
2022-11-29T12:40:58.403Z,9.10
2022-11-29T12:43:53.264Z,10.57
2022-11-29T12:46:30.336Z,9.95
2022-11-29T12:49:12.022Z,9.23
2022-11-29T12:52:04.848Z,8.98
2022-11-29T12:54:50.007Z,9.90
2022-11-29T12:57:54.528Z,9.45
2022-11-29T13:00:21.488Z,9.60
2022-11-29T13:03:27.513Z,11.80
2022-11-29T13:06:12.634Z,8.57
2022-11-29T13:09:02.388Z,12.18
2022-11-29T13:11:37.774Z,9.63
2022-11-29T13:14:42.824Z,10.35
2022-11-29T13:17:26.956Z,8.57
2022-11-29T13:19:58.036Z,9.95
2022-11-29T13:22:45.436Z,9.90
2022-11-29T13:25:20.751Z,8.98
2022-11-29T13:28:00.224Z,10.10
2022-11-29T13:30:26.909Z,11.18
2022-11-29T13:33:12.122Z,12.00
2022-11-29T13:35:43.204Z,10.40
2022-11-29T13:38:19.670Z,9.13
2022-11-29T13:41:02.228Z,8.50
2022-11-29T13:43:50.190Z,10.23
2022-11-29T13:46:56.820Z,11.18
2022-11-29T13:49:55.282Z,11.23
2022-11-29T13:52:35.198Z,11.27
2022-11-29T13:55:05.993Z,11.48
2022-11-29T14:00:42.362Z,11.82
2022-11-29T14:03:24.087Z,15.68
2022-11-29T14:05:50.428Z,10.60
2022-11-29T14:08:37.699Z,9.93
2022-11-29T14:11:13.957Z,11.55
2022-11-29T14:13:58.992Z,10.15
2022-11-29T14:16:43.735Z,13.07
2022-11-29T14:19:10.092Z,12.35
2022-11-29T14:22:07.442Z,12.82
2022-11-29T14:24:36.850Z,10.95
2022-11-29T14:27:06.330Z,13.55
2022-11-29T14:29:48.388Z,14.00
2022-11-29T14:32:46.356Z,13.90
2022-11-29T14:35:13.013Z,14.30
2022-11-29T14:38:14.444Z,15.48
2022-11-29T14:40:40.799Z,12.90
2022-11-29T14:43:23.669Z,13.20
2022-11-29T14:46:29.038Z,14.13
2022-11-29T14:48:55.924Z,14.65
2022-11-29T14:51:24.871Z,15.68
2022-11-29T14:54:04.881Z,15.90
2022-11-29T14:56:31.114Z,16.33
2022-11-29T14:59:34.959Z,17.30
2022-11-29T15:02:14.529Z,17.90
2022-11-29T15:04:41.550Z,17.60
2022-11-29T15:07:16.933Z,17.02
2022-11-29T15:09:44.106Z,18.88
2022-11-29T15:12:21.461Z,17.23
2022-11-29T15:15:09.743Z,17.27
2022-11-29T15:18:00.929Z,16.08
2022-11-29T15:20:39.529Z,15.40
2022-11-29T15:23:11.150Z,15.40
2022-11-29T15:25:47.840Z,17.08
2022-11-29T15:28:21.625Z,12.30
2022-11-29T15:30:48.936Z,14.18
2022-11-29T15:33:24.432Z,14.05
2022-11-29T15:35:54.253Z,13.82
2022-11-29T15:38:22.671Z,12.73
2022-11-29T15:40:54.575Z,14.02
2022-11-29T15:43:27.012Z,14.45
2022-11-29T15:45:55.511Z,16.45
2022-11-29T15:48:27.601Z,13.65
2022-11-29T15:51:17.951Z,14.35
2022-11-29T15:53:49.928Z,13.13
2022-11-29T15:56:33.406Z,12.88
2022-11-29T15:59:04.490Z,14.80
2022-11-29T16:01:35.089Z,13.18
2022-11-29T16:04:02.160Z,14.60
2022-11-29T16:06:38.603Z,13.82
2022-11-29T16:09:12.266Z,14.63
2022-11-29T16:11:39.486Z,15.25
2022-11-29T16:14:11.938Z,14.45
2022-11-29T16:16:39.953Z,14.75
2022-11-29T16:19:16.120Z,14.60
2022-11-29T16:21:44.128Z,15.15
2022-11-29T16:24:38.974Z,17.38
2022-11-29T16:27:07.579Z,16.17
2022-11-29T16:29:37.087Z,15.70
2022-11-29T16:32:26.168Z,15.43
2022-11-29T16:34:53.289Z,15.32
2022-11-29T16:37:28.865Z,13.68
2022-11-29T16:40:00.563Z,13.80
2022-11-29T16:42:31.416Z,12.85
2022-11-29T16:45:07.000Z,13.88
2022-11-29T16:48:09.474Z,14.68
2022-11-29T16:50:35.865Z,13.88
2022-11-29T16:53:32.449Z,14.00
2022-11-29T16:55:58.803Z,14.13
2022-11-29T16:58:25.239Z,13.65
2022-11-29T17:00:51.617Z,12.70
2022-11-29T17:03:18.871Z,13.35
2022-11-29T17:05:45.267Z,12.88
2022-11-29T17:08:11.737Z,13.43
2022-11-29T17:10:38.132Z,13.38
2022-11-29T17:13:04.478Z,11.00
2022-11-29T17:15:32.206Z,11.68
2022-11-29T17:17:58.577Z,11.18
2022-11-29T17:20:24.934Z,11.82
2022-11-29T17:22:51.268Z,11.80
2022-11-29T17:25:17.646Z,11.75
2022-11-29T17:27:44.059Z,11.63
2022-11-29T17:30:11.434Z,10.73
2022-11-29T17:32:38.299Z,10.38
2022-11-29T17:35:05.134Z,10.38
2022-11-29T17:37:31.835Z,10.35
2022-11-29T17:39:58.240Z,10.48
2022-11-29T17:42:24.778Z,11.20
2022-11-29T17:44:51.186Z,9.88
2022-11-29T17:47:17.619Z,11.15
2022-11-29T17:49:44.509Z,11.07
2022-11-29T17:52:11.177Z,12.63
2022-11-29T17:54:37.834Z,11.80
2022-11-29T17:57:04.677Z,11.45
2022-11-29T17:59:31.074Z,10.63
2022-11-29T18:01:57.428Z,11.18
2022-11-29T18:04:23.914Z,11.00
2022-11-29T18:06:51.966Z,13.55
2022-11-29T18:09:19.428Z,12.40
2022-11-29T18:11:49.143Z,12.30
2022-11-29T18:14:28.207Z,12.30
2022-11-29T18:16:55.037Z,10.30
2022-11-29T18:19:23.284Z,8.55
2022-11-29T18:21:50.290Z,10.57
2022-11-29T18:24:17.196Z,11.48
2022-11-29T18:26:43.982Z,11.45
2022-11-29T18:29:10.843Z,11.07
2022-11-29T18:31:40.487Z,14.18
2022-11-29T18:34:12.874Z,12.88
2022-11-29T18:36:49.732Z,12.25
2022-11-29T18:39:19.056Z,10.80
2022-11-29T18:41:49.622Z,10.10
2022-11-29T18:44:18.178Z,10.75
2022-11-29T18:46:45.903Z,10.52
2022-11-29T18:49:14.803Z,11.30
2022-11-29T18:51:45.763Z,10.38
2022-11-29T18:54:13.680Z,10.30
2022-11-29T18:56:41.013Z,9.68
2022-11-29T18:59:10.777Z,9.95
2022-11-29T19:01:40.971Z,8.00
2022-11-29T19:04:09.845Z,8.68
2022-11-29T19:06:39.726Z,8.70
2022-11-29T19:09:08.335Z,9.80
2022-11-29T19:11:34.916Z,10.10
2022-11-29T19:14:04.777Z,9.38
2022-11-29T19:16:33.644Z,9.15
2022-11-29T19:19:01.170Z,9.93
2022-11-29T19:21:29.497Z,9.85
2022-11-29T19:23:58.074Z,9.10
2022-11-29T19:26:26.699Z,10.63
2022-11-29T19:28:53.758Z,9.48
2022-11-29T19:31:23.951Z,8.60
2022-11-29T19:33:53.956Z,9.80
2022-11-29T19:36:23.320Z,9.90
2022-11-29T19:38:54.822Z,10.73
2022-11-29T19:41:32.939Z,9.68
2022-11-29T19:44:01.178Z,11.00
2022-11-29T19:46:33.455Z,9.32
2022-11-29T19:49:03.303Z,9.68
2022-11-29T19:51:30.241Z,9.75
2022-11-29T19:54:10.661Z,12.05
2022-11-29T19:56:38.650Z,10.70
2022-11-29T19:59:06.665Z,10.40
2022-11-29T20:01:40.241Z,11.05
2022-11-29T20:04:07.635Z,10.88
2022-11-29T20:06:34.648Z,9.55
2022-11-29T20:09:01.940Z,10.40
2022-11-29T20:11:29.806Z,9.95
2022-11-29T20:14:01.079Z,9.43
2022-11-29T20:16:28.956Z,8.93
2022-11-29T20:18:56.904Z,7.82
2022-11-29T20:21:26.228Z,11.95
2022-11-29T20:24:02.904Z,10.55
2022-11-29T20:26:33.539Z,11.38
2022-11-29T20:29:01.739Z,12.55
2022-11-29T20:31:28.634Z,14.20
2022-11-29T20:33:58.827Z,13.50
2022-11-29T20:36:52.999Z,10.38
2022-11-29T20:40:07.654Z,7.63
2022-11-29T20:42:52.581Z,6.35
2022-11-29T20:45:19.270Z,6.85
2022-11-29T20:48:11.099Z,6.32
2022-11-29T20:50:38.797Z,6.13
2022-11-29T20:53:42.086Z,6.95
2022-11-29T20:56:10.376Z,5.85
2022-11-29T20:58:37.574Z,6.68
2022-11-29T21:01:04.914Z,6.65
2022-11-29T21:03:31.476Z,6.07
2022-11-29T21:06:01.675Z,6.63
2022-11-29T21:08:28.309Z,6.05
2022-11-29T21:11:01.151Z,6.43
2022-11-29T21:13:27.830Z,6.85
2022-11-29T21:15:54.517Z,6.07
2022-11-29T21:18:25.029Z,7.03
2022-11-29T21:21:06.174Z,7.43
2022-11-29T21:23:45.159Z,8.23
2022-11-29T21:26:16.802Z,6.35
2022-11-29T21:29:04.633Z,7.15
2022-11-29T21:31:31.360Z,6.68
2022-11-29T21:33:58.025Z,8.13
2022-11-29T21:36:24.529Z,7.00
2022-11-29T21:38:55.065Z,7.72
2022-11-29T21:41:21.901Z,7.88
2022-11-29T21:44:06.084Z,8.10
2022-11-29T21:46:33.794Z,7.80
2022-11-29T21:49:00.146Z,7.60
2022-11-29T21:51:26.667Z,6.88
2022-11-29T21:53:52.972Z,8.10
2022-11-29T21:56:19.318Z,8.40
2022-11-29T21:58:45.710Z,7.32
2022-11-29T22:01:15.129Z,7.25
2022-11-29T22:03:42.558Z,6.28
2022-11-29T22:06:16.241Z,7.63
2022-11-29T22:08:42.572Z,6.30
2022-11-29T22:11:14.925Z,7.95
2022-11-29T22:14:02.207Z,7.55
2022-11-29T22:16:29.951Z,7.47
2022-11-29T22:18:56.504Z,8.98
2022-11-29T22:21:25.615Z,7.40
2022-11-29T22:23:52.513Z,7.45
2022-11-29T22:26:20.786Z,8.80
2022-11-29T22:28:47.265Z,8.38
2022-11-29T22:31:13.681Z,8.32
2022-11-29T22:33:40.066Z,9.13
2022-11-29T22:36:09.149Z,8.30
2022-11-29T22:38:36.084Z,9.20
2022-11-29T22:41:07.741Z,9.63
2022-11-29T22:43:35.365Z,9.63
2022-11-29T22:46:12.976Z,9.73
2022-11-29T22:48:40.241Z,7.88
2022-11-29T22:51:08.544Z,9.50
2022-11-29T22:53:36.359Z,9.23
2022-11-29T22:56:05.968Z,10.68
2022-11-29T22:58:32.468Z,9.25
2022-11-29T23:01:09.510Z,9.82
2022-11-29T23:03:37.427Z,10.98
2022-11-29T23:06:09.776Z,11.93
2022-11-29T23:08:44.125Z,11.07
2022-11-29T23:11:13.158Z,12.23
2022-11-29T23:13:41.556Z,13.88
2022-11-29T23:16:12.558Z,13.40
2022-11-29T23:18:39.906Z,13.38
2022-11-29T23:21:12.384Z,13.48
2022-11-29T23:23:38.942Z,13.23
2022-11-29T23:26:07.495Z,11.77
2022-11-29T23:28:35.473Z,12.63
2022-11-29T23:31:02.219Z,12.32
2022-11-29T23:33:28.799Z,13.10
2022-11-29T23:36:03.680Z,11.77
2022-11-29T23:38:30.694Z,12.93
2022-11-29T23:40:59.644Z,12.85
2022-11-29T23:43:29.764Z,13.40
2022-11-29T23:45:56.647Z,10.93
2022-11-29T23:48:23.585Z,13.88
2022-11-29T23:50:50.196Z,12.50
2022-11-29T23:53:20.952Z,12.57
2022-11-29T23:55:56.034Z,12.65
2022-11-29T23:58:22.650Z,12.32
